• Join FlightAware (Why Join?)
  • Login
  • US Flag 
05:02PM EDT


 

Airport Tracker/Info


-or-


 

Live Flight TrackerFlight Track Log ✈ N319EE ✈ 30-Sep-2013 ✈ KBGM - KFRG

Flight Track Log - Related Links

Times and Time Zones

All times are in EDT time to prevent confusion due to time zone crossing. See the N319EE flight status page for this flight to view local times or setup timezone preferences in your user account.

Time Position Orientation Groundspeed Altitude Reporting Facility
EDT Latitude Longitude Course Direction KTS MPH feet Rate Location/Type
06:45PM 42.2181 -75.9203 71° East 168 193 3,100  Level Boston Center
06:46PM 42.2397 -75.8619 63° Northeast 173 199 5,400 2,100 Climbing Boston Center
06:47PM 42.2608 -75.8042 64° Northeast 174 200 7,400 1,860 Climbing Boston Center
06:48PM 42.2864 -75.7411 61° Northeast 187 215 9,300 1,860 Climbing Boston Center
06:49PM 42.2886 -75.6697 88° East 199 229 11,300 1,800 Climbing Boston Center
06:50PM 42.0459 -75.6869 71° East  Level Estimated
06:50PM 42.2717 -75.5978 108° East 203 234 13,000  Level Boston Center
06:51PM 42.2444 -75.4872 108° East 256 295 13,000  Level Boston Center
06:52PM 42.2197 -75.3872 108° East 279 321 13,000  Level Boston Center
06:53PM 42.1967 -75.2906 108° East 274 315 13,000  Level Boston Center
06:54PM 42.1725 -75.1936 109° East 274 315 13,000  Level Boston Center
06:55PM 42.1494 -75.0994 108° East 272 313 13,000  Level Boston Center
06:56PM 42.1264 -75.0036 108° East 272 313 13,000  Level Boston Center
06:57PM 42.0972 -74.8897 109° East 269 310 13,000  Level Boston Center
06:58PM 42.0733 -74.7936 108° East 272 313 13,000  Level Boston Center
06:59PM 42.0475 -74.6908 109° East 271 312 13,000 -300 Level Boston Center
07:00PM 42.0228 -74.5906 108° East 280 322 12,400 -900 Descending Boston Center
07:01PM 41.9964 -74.4864 109° East 294 338 11,200 -720 Descending Boston Center
07:02PM 41.9692 -74.3797 109° East 280 322 11,000 -120 Descending Boston Center
07:03PM 41.9458 -74.2847 108° East 268 308 11,000  Level Boston Center
07:04PM 41.9211 -74.1917 110° East 265 305 11,000  Level Boston Center
07:05PM 41.8961 -74.0906 108° East 265 305 11,100  Climbing Boston Center
07:06PM 41.8711 -73.9964 110° East 266 306 11,000 -60 Descending Boston Center
07:07PM 41.8472 -73.9019 109° East 268 308 11,000 -60 Level Boston Center
07:08PM 41.7936 -73.8242 133° Southeast 265 305 10,900 -60 Descending Boston Center
07:09PM 41.7417 -73.7553 135° Southeast 263 303 10,900 -540 Level Boston Center
07:10PM 41.6875 -73.6844 136° Southeast 270 311 9,900 -1,260 Descending Boston Center
07:11PM 41.6286 -73.6092 136° Southeast 290 334 8,400 -1,560 Descending Boston Center
07:12PM 41.5703 -73.5314 135° Southeast 276 318 6,800 -1,200 Descending Boston Center
07:13PM 41.5156 -73.4664 138° Southeast 266 306 6,000 -480 Descending Boston Center
07:14PM 41.4600 -73.4139 145° Southeast 247 284 5,900  Descending Boston Center
07:15PM 41.4031 -73.3592 144° Southeast 236 272 6,000 60 Climbing Boston Center
07:16PM 41.3667 -73.3333 152° Southeast 232 267 6,000 -720 Level New York TRACON
07:17PM 41.3000 -73.3167 169° South 258 297 4,900 -1,140 Descending New York TRACON
07:18PM 41.2333 -73.3167 180° South 265 305 3,800 -960 Descending New York TRACON
07:19PM 41.1667 -73.3167 180° South 256 295 3,000 -420 Descending New York TRACON
07:20PM 41.1000 -73.3167 180° South 233 268 3,000  Level New York TRACON
07:21PM 41.0333 -73.3167 180° South 227 261 3,000  Level New York TRACON
07:22PM 40.9833 -73.3333 194° South 227 261 3,000  Level New York TRACON
07:23PM 40.9167 -73.3500 191° South 224 258 3,100 -120 Climbing New York TRACON
07:24PM 40.8667 -73.3833 207° Southwest 217 250 2,800 -780 Descending New York TRACON
07:25PM 40.8167 -73.4000 194° South 185 213 1,600 -960 Descending New York TRACON
07:26PM 40.7667 -73.4167 194° South 140 161 900 -720 Descending New York TRACON
07:29PM 40.7288 -73.4134 229° Southwest  Level Estimated